Terminal Aerodrome Forecast
Issued by NWS

Current Version | Previous Version | Graphics & Text | Print | Product List | Glossary On
Versions: 1 2 3 4 5 6 7 8 9 10 11 12 13 14 15 16 17 18 19 20 21 22 23 24 25 26 27 28 29 30
000
FTUS41 KRNK 141507 AAB
TAFLWB
TAF AMD
KLWB 141507Z 1415/1512 00000KT 2SM -DZ BR SCT002 OVC009
     FM142100 00000KT 6SM -RA OVC008
     FM150100 00000KT 2SM BR OVC004
     FM150700 33003KT 5SM BR OVC015=

USA.gov is the U.S. government's official web portal to all federal, state and local government web resources and services.